Time;durP1;ratioP1;P1;durP2;ratioP2;P2;SDS_P1;SDS_P2;PMS_P1;PMS_P2;Temp;Humidity;BMP_temperature;BMP_pressure;BME280_temperature;BME280_humidity;BME280_pressure;Samples;Min_cycle;Max_cycle;Signal;HPM_P1;HPM_P2
2023/03/17 00:01:16;;;;;;;2.25;1.52;;;;;;;5.47;59.80;100474.59;5088060;28;20531;-79
2023/03/17 00:03:45;;;;;;;2.20;1.48;;;;;;;5.44;59.57;100480.63;5091363;28;20043;-76
2023/03/17 00:06:23;;;;;;;1.42;1.10;;;;;;;5.42;59.49;100474.56;5083971;28;20037;-75
2023/03/17 00:08:50;;;;;;;2.85;1.35;;;;;;;5.43;59.66;100465.03;5079433;28;20055;-76
2023/03/17 00:11:23;;;;;;;1.23;1.02;;;;;;;5.36;59.69;100464.13;5085458;28;20083;-81
2023/03/17 00:16:56;;;;;;;1.90;1.63;;;;;;;5.29;60.29;100454.53;5072153;28;20063;-78
2023/03/17 00:19:32;;;;;;;1.52;1.45;;;;;;;5.25;60.38;100461.44;5069720;28;20056;-78
2023/03/17 00:22:00;;;;;;;1.33;1.30;;;;;;;5.14;60.53;100458.72;5081498;28;20149;-77
2023/03/17 00:24:27;;;;;;;4.93;1.70;;;;;;;5.09;60.86;100472.50;5079090;28;20040;-76
2023/03/17 00:26:54;;;;;;;3.00;1.55;;;;;;;5.00;61.44;100465.47;5082460;28;20040;-80
2023/03/17 00:29:20;;;;;;;1.40;1.10;;;;;;;4.99;61.53;100473.25;5085145;28;20041;-78
2023/03/17 00:31:48;;;;;;;1.60;1.33;;;;;;;4.98;61.67;100464.63;5071922;28;20504;-80
2023/03/17 00:34:18;;;;;;;2.97;2.38;;;;;;;5.00;61.72;100456.84;5074360;28;20056;-80
2023/03/17 00:36:50;;;;;;;3.97;1.48;;;;;;;5.01;61.58;100453.41;5077990;28;20044;-78
2023/03/17 00:39:18;;;;;;;1.33;1.23;;;;;;;4.97;61.61;100458.53;5063852;28;20041;-79
2023/03/17 00:41:44;;;;;;;1.38;1.27;;;;;;;4.97;61.86;100452.50;5077599;28;20121;-77
2023/03/17 00:44:11;;;;;;;2.58;1.52;;;;;;;4.99;61.54;100453.34;5080965;28;20690;-80
2023/03/17 00:46:40;;;;;;;3.42;1.83;;;;;;;5.03;61.54;100452.56;5083003;28;20036;-77
2023/03/17 00:49:16;;;;;;;1.70;1.20;;;;;;;5.05;61.44;100455.16;5060365;28;20068;-77
2023/03/17 00:51:44;;;;;;;2.70;1.35;;;;;;;5.01;61.26;100441.28;5076955;28;20046;-77
2023/03/17 00:54:13;;;;;;;6.75;2.15;;;;;;;5.00;61.34;100433.50;5090961;28;20470;-79
2023/03/17 00:56:43;;;;;;;2.42;1.63;;;;;;;5.05;61.19;100434.41;5078958;28;20051;-80
2023/03/17 00:59:41;;;;;;;1.83;1.60;;;;;;;5.12;61.14;100434.50;5081064;28;20740;-78
2023/03/17 01:02:12;;;;;;;3.55;2.20;;;;;;;5.09;61.03;100428.41;5062926;28;20517;-78
2023/03/17 01:04:39;;;;;;;5.88;2.08;;;;;;;5.05;61.32;100429.22;5063339;28;20044;-78
2023/03/17 01:07:09;;;;;;;2.13;1.95;;;;;;;5.07;61.31;100432.69;5079274;28;20044;-78
2023/03/17 01:09:37;;;;;;;3.83;1.77;;;;;;;5.02;61.46;100440.44;5083668;28;20067;-76
2023/03/17 01:12:03;;;;;;;2.95;2.65;;;;;;;5.00;61.52;100444.72;5065529;28;20045;-79
2023/03/17 01:14:30;;;;;;;1.75;1.42;;;;;;;5.03;61.74;100443.91;5089457;28;20048;-81
2023/03/17 01:16:57;;;;;;;3.00;1.73;;;;;;;5.02;61.80;100442.16;5073106;28;20067;-76
2023/03/17 01:19:23;;;;;;;3.33;1.95;;;;;;;5.01;61.76;100440.44;5070427;28;20041;-77
2023/03/17 01:21:51;;;;;;;2.90;1.60;;;;;;;4.98;61.96;100449.06;5070338;28;20048;-76
2023/03/17 01:24:17;;;;;;;1.70;1.55;;;;;;;5.01;61.92;100453.41;5080693;28;20037;-76
2023/03/17 01:26:43;;;;;;;1.50;1.40;;;;;;;4.99;62.12;100449.91;5086264;28;20114;-77
2023/03/17 01:29:11;;;;;;;8.63;1.85;;;;;;;4.97;62.10;100452.50;5086256;28;20119;-80
2023/03/17 01:31:37;;;;;;;5.10;2.38;;;;;;;4.93;62.41;100454.19;5088319;28;20060;-77
2023/03/17 01:34:04;;;;;;;1.58;1.17;;;;;;;4.93;62.44;100471.47;5077168;28;20048;-76
2023/03/17 01:36:31;;;;;;;3.70;1.90;;;;;;;4.94;62.49;100460.22;5072278;28;20120;-79
2023/03/17 01:38:58;;;;;;;3.38;2.03;;;;;;;4.95;62.74;100452.47;5084200;28;20040;-77
2023/03/17 01:41:24;;;;;;;1.98;1.70;;;;;;;4.97;62.73;100448.16;5085296;28;20069;-78
2023/03/17 01:43:51;;;;;;;1.77;1.30;;;;;;;5.00;62.59;100446.47;5085878;28;20059;-80
2023/03/17 01:46:28;;;;;;;2.15;1.95;;;;;;;4.97;62.73;100435.19;5066120;28;20040;-77
2023/03/17 01:49:22;;;;;;;4.00;1.77;;;;;;;4.97;62.84;100424.81;5081310;28;20053;-78
2023/03/17 01:52:08;;;;;;;2.08;1.48;;;;;;;4.95;62.92;100420.47;5069138;28;20045;-79
2023/03/17 01:54:45;;;;;;;2.30;1.50;;;;;;;4.92;63.24;100413.53;5062367;28;20064;-78
2023/03/17 01:57:28;;;;;;;1.92;1.65;;;;;;;4.91;63.27;100411.78;5075209;28;20119;-84
2023/03/17 02:00:14;;;;;;;3.42;2.30;;;;;;;4.88;63.55;100403.97;5074918;28;20550;-79
2023/03/17 02:02:45;;;;;;;2.08;1.75;;;;;;;4.88;63.50;100411.75;5086698;28;20044;-80
2023/03/17 02:05:15;;;;;;;3.28;2.15;;;;;;;4.86;63.95;100397.03;5085129;28;20048;-77
2023/03/17 02:07:43;;;;;;;3.28;2.45;;;;;;;4.83;63.78;100403.06;5082225;28;20049;-84
2023/03/17 02:10:20;;;;;;;4.28;2.50;;;;;;;4.83;64.16;100408.25;5078186;28;20488;-76
2023/03/17 02:13:04;;;;;;;2.05;1.75;;;;;;;4.87;64.27;100404.81;5075835;28;20041;-83
2023/03/17 02:16:10;;;;;;;5.05;2.15;;;;;;;4.89;63.88;100397.03;5069186;28;20044;-76
2023/03/17 02:18:51;;;;;;;2.67;2.22;;;;;;;4.92;63.67;100399.69;5066531;28;20047;-81
2023/03/17 02:22:02;;;;;;;3.63;2.90;;;;;;;4.94;63.81;100410.94;5061281;28;20547;-80
2023/03/17 02:24:55;;;;;;;2.97;2.22;;;;;;;4.93;63.66;100414.41;5078249;28;20052;-79
2023/03/17 02:27:42;;;;;;;2.85;2.47;;;;;;;4.94;63.57;100414.41;5068674;28;20041;-78
2023/03/17 02:30:30;;;;;;;1.65;1.55;;;;;;;4.95;63.83;100418.75;5076614;28;20041;-79
2023/03/17 02:33:02;;;;;;;3.22;2.33;;;;;;;4.90;63.79;100420.44;5069445;28;20047;-77
2023/03/17 02:35:45;;;;;;;2.55;1.67;;;;;;;4.86;63.95;100426.41;5083364;28;20493;-80
2023/03/17 02:38:29;;;;;;;2.03;1.88;;;;;;;4.77;64.27;100432.41;5090575;28;20036;-76
2023/03/17 02:41:18;;;;;;;2.92;2.40;;;;;;;4.67;64.76;100430.53;5077203;28;20047;-78
2023/03/17 02:44:17;;;;;;;3.05;2.05;;;;;;;4.62;65.17;100422.69;5076728;28;20394;-80
2023/03/17 02:46:45;;;;;;;2.38;2.17;;;;;;;4.66;65.41;100418.44;5077393;28;20055;-76
2023/03/17 02:49:22;;;;;;;7.05;2.63;;;;;;;4.73;65.13;100416.78;5062908;28;20059;-79
2023/03/17 02:51:52;;;;;;;4.00;2.20;;;;;;;4.80;64.99;100410.81;5078412;28;20052;-80
2023/03/17 02:54:18;;;;;;;2.63;1.90;;;;;;;4.89;65.07;100405.72;5082511;28;20050;-80
2023/03/17 02:56:45;;;;;;;2.85;1.90;;;;;;;4.95;64.56;100395.41;5081491;28;20055;-76
2023/03/17 02:59:12;;;;;;;2.97;2.53;;;;;;;4.98;64.15;100402.34;5083022;28;20397;-80
2023/03/17 03:01:49;;;;;;;5.07;2.40;;;;;;;5.00;64.11;100389.41;5075532;28;20048;-78
2023/03/17 03:04:20;;;;;;;6.03;2.30;;;;;;;4.99;64.20;100390.25;5068667;28;20072;-76
2023/03/17 03:06:48;;;;;;;3.35;2.33;;;;;;;4.98;64.12;100384.19;5080199;28;20052;-76
2023/03/17 03:09:16;;;;;;;6.20;2.83;;;;;;;5.01;63.99;100386.81;5074653;28;20036;-82
2023/03/17 03:11:47;;;;;;;4.75;2.83;;;;;;;5.05;63.89;100392.91;5077926;28;20044;-79
2023/03/17 03:14:15;;;;;;;1.95;1.85;;;;;;;5.05;63.86;100387.72;5076962;28;20047;-80
2023/03/17 03:16:42;;;;;;;3.45;2.28;;;;;;;5.06;63.89;100400.69;5080973;28;20060;-79
2023/03/17 03:19:18;;;;;;;3.80;2.42;;;;;;;5.05;63.79;100403.28;5081441;28;20072;-81
2023/03/17 03:21:46;;;;;;;2.50;2.20;;;;;;;5.05;64.17;100398.94;5070962;28;20048;-77
2023/03/17 03:24:15;;;;;;;2.38;2.17;;;;;;;4.99;64.22;100404.06;5062036;28;20052;-80
2023/03/17 03:26:45;;;;;;;2.70;2.50;;;;;;;4.91;64.18;100411.78;5063953;28;20071;-81
2023/03/17 03:29:11;;;;;;;4.60;2.58;;;;;;;4.86;64.49;100421.22;5082508;28;20063;-78
2023/03/17 03:31:38;;;;;;;5.68;2.75;;;;;;;4.82;64.83;100413.41;5077224;28;20060;-79
2023/03/17 03:34:04;;;;;;;2.55;2.05;;;;;;;4.74;65.09;100414.19;5080060;28;20040;-79
2023/03/17 03:36:31;;;;;;;4.22;2.35;;;;;;;4.70;65.75;100408.97;5080889;28;20204;-78
2023/03/17 03:38:59;;;;;;;4.90;2.42;;;;;;;4.69;65.99;100409.81;5083758;28;20067;-84
2023/03/17 03:41:26;;;;;;;2.88;2.67;;;;;;;4.69;65.84;100404.63;5064485;28;20055;-86
2023/03/17 03:43:52;;;;;;;3.05;2.40;;;;;;;4.68;65.80;100416.75;5068925;28;20051;-82
2023/03/17 03:46:19;;;;;;;3.78;2.38;;;;;;;4.62;65.96;100404.56;5085367;28;20403;-78
2023/03/17 03:48:48;;;;;;;4.10;3.00;;;;;;;4.62;66.52;100396.78;5084215;28;20076;-82
2023/03/17 03:51:15;;;;;;;5.80;2.80;;;;;;;4.57;66.58;100395.00;5075641;28;20044;-85
2023/03/17 03:53:41;;;;;;;2.50;2.30;;;;;;;4.60;66.78;100389.84;5061106;28;20067;-78
2023/03/17 03:56:08;;;;;;;5.65;2.90;;;;;;;4.55;66.99;100378.53;5069389;28;20052;-77
2023/03/17 03:58:35;;;;;;;3.17;2.42;;;;;;;4.51;67.15;100369.88;5085319;28;20032;-78
2023/03/17 04:01:16;;;;;;;4.60;2.63;;;;;;;4.46;67.44;100363.78;5078452;28;20070;-79
2023/03/17 04:03:45;;;;;;;4.30;2.60;;;;;;;4.40;67.66;100348.16;5084206;28;20048;-79
2023/03/17 04:06:12;;;;;;;5.65;2.45;;;;;;;4.39;68.14;100346.41;5082487;28;20041;-76
2023/03/17 04:08:38;;;;;;;4.07;2.45;;;;;;;4.37;68.20;100340.31;5082463;28;20049;-80
2023/03/17 04:11:05;;;;;;;3.40;2.63;;;;;;;4.28;69.04;100348.88;5084243;28;20048;-78
2023/03/17 04:13:31;;;;;;;5.18;2.45;;;;;;;4.23;69.05;100355.72;5078902;28;20047;-82
2023/03/17 04:18:41;;;;;;;7.18;2.20;;;;;;;4.27;68.71;100347.13;5078779;28;20124;-79
2023/03/17 04:21:09;;;;;;;3.40;3.00;;;;;;;4.20;68.83;100343.59;5077033;28;20131;-79
2023/03/17 04:27:54;;;;;;;3.33;2.63;;;;;;;4.10;68.68;100346.94;5017803;28;20045;-78
2023/03/17 04:30:22;;;;;;;3.03;2.05;;;;;;;4.07;68.84;100342.59;5079224;28;20059;-81
2023/03/17 04:32:49;;;;;;;3.83;2.38;;;;;;;4.08;68.94;100335.66;5087128;28;20072;-77
2023/03/17 04:35:24;;;;;;;3.05;2.50;;;;;;;4.12;68.64;100343.50;5084967;28;20047;-80
2023/03/17 04:37:50;;;;;;;6.15;2.90;;;;;;;4.18;68.37;100334.06;5077060;28;20051;-78
2023/03/17 04:40:18;;;;;;;5.80;2.40;;;;;;;4.20;68.09;100332.34;5078313;28;20049;-77
2023/03/17 04:42:45;;;;;;;3.63;2.33;;;;;;;4.22;68.09;100333.25;5083447;28;20052;-80
2023/03/17 04:45:14;;;;;;;5.72;2.40;;;;;;;4.25;68.01;100341.94;5081420;28;20055;-78
2023/03/17 04:47:41;;;;;;;4.53;2.40;;;;;;;4.23;68.25;100348.81;5082228;28;20048;-81
2023/03/17 04:50:09;;;;;;;5.32;3.25;;;;;;;4.18;68.38;100337.53;5083274;28;20036;-78
2023/03/17 04:52:36;;;;;;;4.82;2.35;;;;;;;4.20;68.14;100333.25;5072514;28;20558;-77
2023/03/17 04:55:05;;;;;;;4.00;2.22;;;;;;;4.20;68.44;100343.59;5079809;28;20091;-80
2023/03/17 04:57:32;;;;;;;4.88;2.40;;;;;;;4.12;68.91;100342.66;5085707;28;20168;-79
2023/03/17 05:00:05;;;;;;;3.97;2.40;;;;;;;4.08;68.49;100339.16;5077107;28;20039;-78
2023/03/17 05:02:39;;;;;;;2.47;2.20;;;;;;;4.03;69.22;100340.81;5075485;28;20040;-78
2023/03/17 05:05:07;;;;;;;3.95;2.92;;;;;;;4.02;69.28;100339.06;5083174;28;20910;-77
2023/03/17 05:07:34;;;;;;;4.13;2.50;;;;;;;4.00;69.51;100332.97;5079095;28;20040;-77
2023/03/17 05:10:00;;;;;;;3.45;3.15;;;;;;;4.00;69.25;100324.34;5080275;28;20401;-77
2023/03/17 05:12:27;;;;;;;4.38;2.88;;;;;;;4.03;69.19;100322.69;5082532;28;20048;-83
2023/03/17 05:14:54;;;;;;;4.00;2.08;;;;;;;4.03;68.61;100329.56;5078997;28;20044;-77
2023/03/17 05:17:20;;;;;;;3.30;2.35;;;;;;;4.03;68.92;100327.84;5076951;28;20109;-76
2023/03/17 05:19:47;;;;;;;3.65;2.67;;;;;;;4.10;68.65;100328.78;5083562;28;20159;-79
2023/03/17 05:22:14;;;;;;;2.75;2.35;;;;;;;4.08;68.36;100328.78;5080619;28;20040;-79
2023/03/17 05:24:40;;;;;;;4.38;3.08;;;;;;;4.12;68.49;100327.09;5078778;28;20114;-79
2023/03/17 05:27:07;;;;;;;3.05;2.78;;;;;;;4.15;68.43;100329.72;5059552;28;20048;-77
2023/03/17 05:29:33;;;;;;;3.97;2.75;;;;;;;4.17;68.04;100327.16;5068723;28;20052;-78
2023/03/17 05:32:00;;;;;;;2.80;2.30;;;;;;;4.12;68.44;100324.53;5061559;28;20041;-79
2023/03/17 05:34:26;;;;;;;5.63;2.67;;;;;;;4.12;68.26;100312.41;5078817;28;20052;-78
2023/03/17 05:36:53;;;;;;;2.85;2.55;;;;;;;4.15;68.02;100309.00;5074983;28;20048;-82
2023/03/17 05:39:22;;;;;;;5.30;3.05;;;;;;;4.17;68.08;100306.41;5081514;28;20059;-89
2023/03/17 05:41:49;;;;;;;4.20;2.90;;;;;;;4.15;68.27;100319.34;5055192;28;20097;-76
2023/03/17 05:44:15;;;;;;;3.33;2.03;;;;;;;4.12;68.13;100315.00;5080544;28;20068;-76
2023/03/17 05:46:42;;;;;;;4.60;3.13;;;;;;;4.10;68.22;100308.06;5063404;28;20135;-76
2023/03/17 05:49:11;;;;;;;3.30;2.10;;;;;;;4.08;68.40;100299.41;5077315;28;20048;-82
2023/03/17 05:51:40;;;;;;;3.58;2.35;;;;;;;4.09;68.30;100309.81;5077130;28;20064;-81
2023/03/17 05:54:10;;;;;;;4.28;2.83;;;;;;;4.12;68.12;100296.88;5075643;28;20062;-77
2023/03/17 05:56:36;;;;;;;5.40;2.50;;;;;;;4.10;68.04;100302.88;5077527;28;20549;-75
2023/03/17 05:59:04;;;;;;;5.75;3.17;;;;;;;4.11;68.07;100302.91;5062952;28;20044;-78
2023/03/17 06:01:31;;;;;;;5.40;2.83;;;;;;;4.13;67.93;100292.56;5063725;28;20050;-77
2023/03/17 06:03:59;;;;;;;3.38;2.20;;;;;;;4.17;67.23;100294.31;5078897;28;20124;-81
2023/03/17 06:06:26;;;;;;;4.57;2.88;;;;;;;4.19;67.71;100291.78;5076563;28;20048;-78
2023/03/17 06:08:52;;;;;;;2.42;2.20;;;;;;;4.19;67.40;100290.03;5081616;28;20044;-79
2023/03/17 06:11:20;;;;;;;4.93;2.90;;;;;;;4.18;67.58;100300.41;5077057;28;20055;-81
2023/03/17 06:13:47;;;;;;;4.22;2.22;;;;;;;4.22;67.23;100297.84;5081016;28;20057;-76
2023/03/17 06:16:13;;;;;;;3.45;2.85;;;;;;;4.24;66.98;100303.91;5082024;28;20475;-77
2023/03/17 06:18:44;;;;;;;6.43;3.05;;;;;;;4.21;67.34;100305.59;5078096;28;20040;-76
2023/03/17 06:21:11;;;;;;;3.67;2.60;;;;;;;4.30;67.13;100304.00;5082448;28;20067;-76
2023/03/17 06:23:38;;;;;;;3.55;1.77;;;;;;;4.37;66.48;100304.03;5085596;28;20035;-78
2023/03/17 06:26:05;;;;;;;2.70;2.50;;;;;;;4.42;66.22;100316.22;5086975;28;20032;-76
2023/03/17 06:28:32;;;;;;;5.60;2.42;;;;;;;4.48;65.81;100299.84;5084912;28;20044;-76
2023/03/17 06:30:59;;;;;;;3.63;2.38;;;;;;;4.59;65.29;100297.38;5081586;28;20514;-77
2023/03/17 06:33:25;;;;;;;4.32;3.10;;;;;;;4.66;65.02;100293.13;5087143;28;20044;-75
2023/03/17 06:35:52;;;;;;;7.03;2.90;;;;;;;4.68;65.14;100289.69;5085137;28;20052;-76
2023/03/17 06:38:19;;;;;;;3.08;2.17;;;;;;;5.02;64.41;100291.69;5081082;28;20054;-79
2023/03/17 06:40:46;;;;;;;3.97;2.47;;;;;;;5.64;62.63;100285.16;5072357;28;20044;-76
2023/03/17 06:43:12;;;;;;;6.07;2.97;;;;;;;6.12;60.09;100288.00;5087899;28;20044;-78
2023/03/17 06:45:39;;;;;;;8.10;3.67;;;;;;;6.49;58.67;100290.69;5069896;28;20582;-78
2023/03/17 06:48:06;;;;;;;5.30;2.35;;;;;;;6.64;57.42;100295.06;5084581;28;20679;-77
2023/03/17 06:50:33;;;;;;;3.50;2.45;;;;;;;6.96;56.74;100304.63;5084844;28;20793;-80
2023/03/17 06:52:59;;;;;;;3.08;2.65;;;;;;;7.16;55.73;100308.97;5080860;28;20072;-76
2023/03/17 06:55:27;;;;;;;3.58;2.10;;;;;;;7.50;55.49;100315.00;5069734;28;20076;-76
2023/03/17 06:57:53;;;;;;;7.47;3.40;;;;;;;7.79;53.98;100303.66;5066801;28;20050;-77
2023/03/17 07:00:21;;;;;;;4.00;2.10;;;;;;;7.95;53.39;100307.06;5077591;28;20517;-76
2023/03/17 07:02:48;;;;;;;5.13;2.47;;;;;;;8.01;52.76;100306.19;5088380;28;20063;-82
2023/03/17 07:05:15;;;;;;;5.25;2.75;;;;;;;8.31;52.18;100292.13;5068616;28;20036;-79
2023/03/17 07:07:42;;;;;;;3.90;1.67;;;;;;;8.49;51.60;100291.19;5069300;28;20150;-78
2023/03/17 07:10:14;;;;;;;5.25;2.03;;;;;;;8.74;51.05;100284.06;5087572;28;20040;-76
2023/03/17 07:12:41;;;;;;;6.57;2.20;;;;;;;8.92;50.54;100285.66;5074793;28;20037;-77
2023/03/17 07:15:09;;;;;;;3.85;2.45;;;;;;;8.91;49.72;100286.53;5075685;28;20052;-79
2023/03/17 07:17:37;;;;;;;3.00;2.15;;;;;;;9.23;49.02;100281.91;5084360;28;20032;-79
2023/03/17 07:20:05;;;;;;;4.63;2.03;;;;;;;9.27;48.89;100284.47;5082244;28;20630;-78
2023/03/17 07:22:32;;;;;;;4.28;2.78;;;;;;;9.48;48.59;100295.59;5085995;28;20040;-77
2023/03/17 07:24:58;;;;;;;4.28;2.15;;;;;;;9.68;48.37;100282.31;5091376;28;20040;-82
2023/03/17 07:27:25;;;;;;;5.22;2.53;;;;;;;9.90;47.37;100287.31;5075904;28;20048;-76
2023/03/17 07:29:52;;;;;;;5.13;2.75;;;;;;;9.83;47.49;100281.28;5080967;28;20402;-78
2023/03/17 07:32:19;;;;;;;5.07;2.70;;;;;;;10.12;47.28;100285.28;5084209;28;20053;-79
2023/03/17 07:34:46;;;;;;;3.65;2.40;;;;;;;10.21;46.89;100285.16;5086000;28;20721;-76
2023/03/17 07:37:14;;;;;;;4.00;2.65;;;;;;;10.16;47.41;100281.75;5089339;28;20040;-74
2023/03/17 07:39:41;;;;;;;6.43;2.80;;;;;;;10.26;46.98;100280.72;5086737;28;20518;-75
2023/03/17 07:42:08;;;;;;;6.38;2.78;;;;;;;10.49;46.14;100283.94;5085125;28;20068;-77
2023/03/17 07:44:36;;;;;;;3.50;2.15;;;;;;;10.87;45.00;100285.09;5081878;28;20040;-76
2023/03/17 07:47:02;;;;;;;3.47;2.30;;;;;;;11.04;44.78;100287.44;5087862;28;20494;-82
2023/03/17 07:49:29;;;;;;;6.10;2.15;;;;;;;11.35;44.20;100285.16;5080070;28;20498;-75
2023/03/17 07:51:55;;;;;;;3.08;2.47;;;;;;;11.62;43.47;100289.94;5085238;28;20478;-76
2023/03/17 07:54:23;;;;;;;2.97;2.60;;;;;;;11.84;43.09;100291.22;5086235;28;20040;-77
2023/03/17 07:56:50;;;;;;;2.53;2.20;;;;;;;11.75;42.75;100283.53;5083423;28;20509;-79
2023/03/17 07:59:17;;;;;;;4.47;2.55;;;;;;;11.47;43.41;100284.09;5079044;28;20075;-78
2023/03/17 08:01:43;;;;;;;3.13;2.55;;;;;;;11.53;43.54;100280.47;5083814;28;20062;-78
2023/03/17 08:04:12;;;;;;;3.03;2.53;;;;;;;11.27;43.37;100275.72;5077138;28;20032;-77
2023/03/17 08:06:41;;;;;;;4.97;2.55;;;;;;;10.99;43.66;100270.94;5076901;28;20051;-78
2023/03/17 08:09:10;;;;;;;3.70;2.10;;;;;;;10.65;44.48;100259.28;5078038;28;20054;-76
2023/03/17 08:11:37;;;;;;;4.38;2.17;;;;;;;10.43;45.81;100254.34;5084576;28;20050;-76
2023/03/17 08:14:08;;;;;;;2.33;2.00;;;;;;;10.20;46.03;100252.03;5080720;28;20167;-79
2023/03/17 08:16:34;;;;;;;4.53;2.33;;;;;;;10.10;46.05;100264.38;5086343;28;20040;-78
2023/03/17 08:19:02;;;;;;;6.72;2.30;;;;;;;10.12;46.09;100259.13;5084186;28;20044;-80
2023/03/17 08:21:29;;;;;;;2.38;1.90;;;;;;;10.19;46.45;100262.53;5082380;28;20058;-79
2023/03/17 08:23:56;;;;;;;5.25;2.67;;;;;;;10.64;45.76;100264.50;5070423;28;20736;-76
2023/03/17 08:26:23;;;;;;;146.77;27.38;;;;;;;11.17;45.03;100261.91;5064281;28;20053;-77
2023/03/17 08:28:50;;;;;;;4.30;2.28;;;;;;;11.32;44.09;100260.78;5076606;28;20037;-79
2023/03/17 08:31:21;;;;;;;2.72;2.17;;;;;;;11.52;44.03;100266.47;5082416;28;20041;-78
2023/03/17 08:33:55;;;;;;;4.93;2.30;;;;;;;11.68;43.11;100272.31;5077379;28;20052;-80
2023/03/17 08:36:22;;;;;;;2.58;2.20;;;;;;;12.19;42.71;100276.53;5083230;28;20052;-77
2023/03/17 08:38:50;;;;;;;2.15;1.95;;;;;;;12.71;41.48;100260.47;5080959;28;20517;-76
2023/03/17 08:41:21;;;;;;;2.60;1.88;;;;;;;13.19;40.83;100268.06;5065196;28;20506;-78
2023/03/17 08:43:49;;;;;;;5.32;1.65;;;;;;;13.89;40.22;100259.16;5064685;28;20730;-80
2023/03/17 08:46:24;;;;;;;6.03;1.95;;;;;;;13.91;38.88;100272.28;5079898;28;20505;-79
2023/03/17 08:48:52;;;;;;;3.50;2.00;;;;;;;14.03;38.74;100265.78;5080821;28;20044;-78
2023/03/17 08:51:21;;;;;;;3.65;2.10;;;;;;;13.98;39.66;100263.28;5077513;28;20133;-78
2023/03/17 08:53:48;;;;;;;3.17;2.03;;;;;;;14.05;39.35;100256.06;5078620;28;20048;-78
2023/03/17 08:56:15;;;;;;;4.13;2.00;;;;;;;14.09;39.78;100257.69;5065239;28;20384;-77
2023/03/17 08:58:42;;;;;;;2.92;1.60;;;;;;;14.27;38.89;100258.06;5082470;28;20040;-77
2023/03/17 09:01:12;;;;;;;4.75;1.70;;;;;;;13.98;39.38;100241.38;5068221;28;20044;-78
2023/03/17 09:03:40;;;;;;;3.75;1.88;;;;;;;14.65;38.38;100245.47;5065155;28;20553;-80
2023/03/17 09:06:10;;;;;;;2.90;2.45;;;;;;;15.04;37.83;100240.69;5077924;28;20110;-76
2023/03/17 09:08:43;;;;;;;1.80;1.70;;;;;;;15.10;36.76;100244.03;5082769;28;20101;-77
2023/03/17 09:11:19;;;;;;;1.90;1.65;;;;;;;14.79;37.40;100231.88;5084863;28;20131;-80
2023/03/17 09:13:47;;;;;;;4.00;2.67;;;;;;;14.95;37.26;100238.31;5079824;28;20041;-77
2023/03/17 09:16:17;;;;;;;3.83;2.25;;;;;;;14.79;37.34;100242.41;5084020;28;20036;-77
2023/03/17 09:18:45;;;;;;;2.38;2.05;;;;;;;14.13;38.63;100233.03;5067418;28;20052;-77
2023/03/17 09:21:16;;;;;;;2.22;1.45;;;;;;;13.47;39.61;100242.84;5080889;28;20076;-77
2023/03/17 09:23:42;;;;;;;5.63;2.50;;;;;;;12.84;40.64;100234.78;5081763;28;20056;-76
2023/03/17 09:26:11;;;;;;;2.05;1.42;;;;;;;12.40;40.79;100238.44;5082063;28;20064;-77
2023/03/17 09:28:38;;;;;;;2.90;1.73;;;;;;;12.16;42.04;100239.00;5076031;28;20093;-78
2023/03/17 09:31:10;;;;;;;2.00;1.75;;;;;;;11.93;42.61;100224.63;5065906;28;20082;-81
2023/03/17 09:33:41;;;;;;;2.40;1.30;;;;;;;11.91;42.63;100239.50;5085671;28;20151;-79
2023/03/17 09:36:12;;;;;;;2.90;1.95;;;;;;;11.90;42.92;100240.41;5090320;28;20045;-77
2023/03/17 09:38:39;;;;;;;2.72;1.95;;;;;;;11.86;43.07;100236.13;5083133;28;20048;-78
2023/03/17 09:41:40;;;;;;;2.25;1.55;;;;;;;11.86;43.45;100238.72;5079700;28;20039;-78
2023/03/17 09:44:54;;;;;;;2.67;1.58;;;;;;;11.97;43.45;100238.53;5090921;28;20044;-77
2023/03/17 09:48:13;;;;;;;3.13;1.17;;;;;;;12.14;42.81;100240.81;5091890;28;20082;-75
2023/03/17 09:50:49;;;;;;;2.25;1.20;;;;;;;12.33;42.59;100244.75;5090043;28;20055;-78
2023/03/17 09:53:32;;;;;;;3.40;1.70;;;;;;;13.16;41.64;100252.34;5083093;28;20550;-76
2023/03/17 09:56:14;;;;;;;2.58;1.58;;;;;;;14.07;39.80;100246.38;5089899;28;20047;-77
2023/03/17 09:58:48;;;;;;;2.58;1.88;;;;;;;14.84;38.61;100253.66;5091073;28;20070;-78
2023/03/17 10:01:15;;;;;;;1.90;1.33;;;;;;;15.37;37.42;100261.50;5090568;28;20199;-82
2023/03/17 10:03:42;;;;;;;1.77;1.60;;;;;;;15.49;37.23;100262.84;5095211;28;20057;-78
2023/03/17 10:06:34;;;;;;;1.65;1.55;;;;;;;15.70;36.71;100269.13;5092105;28;20051;-76
2023/03/17 10:09:04;;;;;;;2.80;1.98;;;;;;;16.45;36.08;100263.72;5087654;28;20044;-79
2023/03/17 10:12:14;;;;;;;3.45;1.77;;;;;;;17.16;33.99;100259.06;5080840;28;20028;-76
2023/03/17 10:15:35;;;;;;;1.75;1.65;;;;;;;17.57;32.73;100250.22;5083505;28;20509;-79
2023/03/17 10:18:16;;;;;;;1.63;1.33;;;;;;;18.10;32.53;100242.59;5083177;28;20120;-77
2023/03/17 10:20:54;;;;;;;3.30;1.70;;;;;;;18.28;32.37;100235.59;5085485;28;20056;-75
2023/03/17 10:23:26;;;;;;;1.88;1.40;;;;;;;17.95;32.36;100236.22;5074951;28;20048;-76
2023/03/17 10:25:52;;;;;;;3.22;2.45;;;;;;;17.75;32.59;100239.75;5085040;28;20044;-76
2023/03/17 10:28:31;;;;;;;3.05;1.42;;;;;;;17.72;32.75;100230.16;5087754;28;20044;-77
2023/03/17 10:31:15;;;;;;;2.38;1.67;;;;;;;18.29;31.94;100235.50;5077014;28;20060;-77
2023/03/17 10:33:51;;;;;;;3.35;1.55;;;;;;;18.88;31.92;100237.06;5079366;28;20120;-77
2023/03/17 10:36:36;;;;;;;3.00;1.30;;;;;;;18.37;31.56;100235.13;5072158;28;20045;-76
2023/03/17 10:39:05;;;;;;;7.53;1.70;;;;;;;18.69;31.01;100248.59;5087572;28;20051;-80
2023/03/17 10:41:39;;;;;;;1.10;1.00;;;;;;;19.08;31.12;100234.28;5069068;28;20048;-77
2023/03/17 10:44:29;;;;;;;2.40;1.23;;;;;;;19.93;29.75;100227.22;5083695;28;20529;-79
2023/03/17 10:46:56;;;;;;;3.00;1.45;;;;;;;20.31;29.91;100228.66;5096664;28;20052;-77
2023/03/17 10:49:24;;;;;;;2.40;1.45;;;;;;;20.49;29.40;100229.41;5085829;28;20044;-77
2023/03/17 10:51:54;;;;;;;2.47;1.63;;;;;;;20.90;28.36;100228.84;5091866;28;20117;-80
2023/03/17 10:54:24;;;;;;;2.70;1.88;;;;;;;21.09;28.93;100235.75;5074906;28;20052;-77
2023/03/17 10:57:01;;;;;;;4.95;1.17;;;;;;;21.49;28.30;100223.53;5084028;28;20075;-77
2023/03/17 10:59:31;;;;;;;3.13;1.60;;;;;;;21.87;27.79;100229.25;5083266;28;20602;-78
2023/03/17 11:02:08;;;;;;;1.70;1.60;;;;;;;22.33;27.62;100228.97;5084835;28;20040;-79
2023/03/17 11:04:42;;;;;;;3.45;1.20;;;;;;;22.66;27.67;100242.88;5064637;28;20068;-82
2023/03/17 11:07:21;;;;;;;7.10;1.67;;;;;;;23.87;25.93;100238.19;5077223;28;20063;-80
2023/03/17 11:09:50;;;;;;;1.65;1.40;;;;;;;24.04;25.10;100235.22;5087125;28;20040;-76
2023/03/17 11:12:40;;;;;;;1.60;1.50;;;;;;;23.75;25.24;100227.44;5081186;28;20035;-76
2023/03/17 11:15:13;;;;;;;1.88;1.73;;;;;;;22.87;26.87;100232.63;5077535;28;20048;-77
2023/03/17 11:18:31;;;;;;;4.32;1.77;;;;;;;23.07;25.54;100231.25;5079329;28;20050;-82
2023/03/17 11:21:11;;;;;;;2.28;1.15;;;;;;;22.40;26.19;100222.31;5048941;28;20048;-82
2023/03/17 11:24:03;;;;;;;1.52;1.08;;;;;;;22.10;27.18;100225.16;5080185;28;20089;-77
2023/03/17 11:26:58;;;;;;;2.13;1.52;;;;;;;22.92;26.56;100226.00;5071185;28;20070;-79
2023/03/17 11:30:15;;;;;;;1.55;1.30;;;;;;;23.84;24.76;100222.41;5082927;28;20052;-76
2023/03/17 11:32:57;;;;;;;2.17;1.50;;;;;;;24.33;25.36;100220.69;5077402;28;20050;-77
2023/03/17 11:35:34;;;;;;;1.48;1.38;;;;;;;24.45;25.09;100217.09;5085473;28;20144;-76
2023/03/17 11:38:20;;;;;;;5.35;1.50;;;;;;;23.84;24.77;100219.72;5080188;28;20067;-78
2023/03/17 11:41:26;;;;;;;4.05;1.55;;;;;;;23.17;25.65;100207.50;5081020;28;20138;-78
2023/03/17 11:44:57;;;;;;;3.72;1.38;;;;;;;23.17;25.72;100200.31;5084355;28;20097;-77
2023/03/17 11:48:17;;;;;;;1.50;1.30;;;;;;;23.13;26.13;100196.13;5078116;28;20047;-77
2023/03/17 11:51:15;;;;;;;1.17;1.08;;;;;;;22.23;27.48;100186.06;5076577;28;20113;-77
2023/03/17 11:54:08;;;;;;;1.42;1.33;;;;;;;23.14;26.13;100189.88;5067332;28;20454;-78
2023/03/17 11:56:51;;;;;;;1.40;1.30;;;;;;;23.01;26.10;100197.84;5079552;28;20463;-83
2023/03/17 11:59:45;;;;;;;4.80;1.33;;;;;;;22.63;26.32;100183.47;5079665;28;20047;-77
2023/03/17 12:02:31;;;;;;;1.33;1.33;;;;;;;22.68;26.87;100184.97;5072092;28;20384;-77
2023/03/17 12:05:05;;;;;;;2.35;1.20;;;;;;;22.49;26.80;100190.66;5082935;28;20056;-76